Address 0x5ab6245b8676beb494db9e5aef8fdb41cb3c9694

 
 
Txn Hash
Block
From
To
Value [Txn Fee]
0xed582f5d99aec41d9c825af19ab9aa9b183137ddc1f3222541dd333a87e2a74f83657912021-06-17 4:26:1340 days 2 hrs ago0x5ab6245b8676beb494db9e5aef8fdb41cb3c9694OUT 0xd8b7e4ff5af905a90092f8bf27f2e6f3204df8520 BNB0.000225805
0x375ba359f055898e470f2e660c60ec5983de9f641878b69de6741eb31115c6d081678042021-06-10 6:04:2247 days 52 mins ago0x5ab6245b8676beb494db9e5aef8fdb41cb3c9694OUT PancakeSwap: Router v20.057213831201205 BNB0.00110594
0xee43e11a1ee76f45fe29bf820ad8d2b9ce478e3adf2c54d3016467e6515163e981666492021-06-10 5:05:4047 days 1 hr ago0x5ab6245b8676beb494db9e5aef8fdb41cb3c9694OUT0xd539e8d59c6939441a2ccfa1a9d46338a798ece60.1366 BNB0.000105
0xc6f25f4d3f9898ca0c1babb16d57373ca3c92edf69e585291d0c4e02ea69390c81665582021-06-10 5:01:0747 days 1 hr ago0x5ab6245b8676beb494db9e5aef8fdb41cb3c9694OUT PancakeSwap: Router v20 BNB0.0006132
0xb8096f61d13ddc1f6cf1940a11918683f5bac859f2c89c1b3f0433f2ea3f00f481665182021-06-10 4:59:0747 days 1 hr agoBinance: Hot Wallet IN 0x5ab6245b8676beb494db9e5aef8fdb41cb3c96940.05945527 BNB0.00021
0x69f0ac0cb9c359b13cf05fddcca05920f68f6c014161ff84d12eb7561927be1679948992021-06-04 5:40:5153 days 1 hr ago0x5ab6245b8676beb494db9e5aef8fdb41cb3c9694OUT0xd539e8d59c6939441a2ccfa1a9d46338a798ece60.139285844732384 BNB0.000105
0xa78e67b93e30f80163be113d70f2b59c7813195f1fbaf16b9fe2124de6a6aca179427692021-06-02 10:02:4754 days 20 hrs ago0x5ab6245b8676beb494db9e5aef8fdb41cb3c9694OUT Hamster Finance: HAM Token0 BNB0.00022203
0x33bafa28d409bc47c129c3eac6ac7fef9910b29ed8d45bdc1f0e84d978052a6279422792021-06-02 9:38:1754 days 21 hrs ago0x5ab6245b8676beb494db9e5aef8fdb41cb3c9694OUT PancakeSwap: Router v20.14 BNB0.00067194
0x8186c6fae8c54475b9e743ee8abcaae459bf5c9cf216bb84ac852c3e4e84088079291922021-06-01 22:43:2455 days 8 hrs ago0x5ab6245b8676beb494db9e5aef8fdb41cb3c9694OUT0xd539e8d59c6939441a2ccfa1a9d46338a798ece60.29 BNB0.000105
0xcda2c27ce28cfa606f9839322fb90cd91701a6cfffa93bc96a379bb5109bcd3d79289622021-06-01 22:31:5455 days 8 hrs ago0x5ab6245b8676beb494db9e5aef8fdb41cb3c9694OUT PancakeSwap: Router v20.019 BNB0.001144575
0x2119f68bce05ec6fcb86764b3acdd65322d1b42eb2c07abc7ea44d5ba6bf26a779208072021-06-01 15:42:5655 days 15 hrs ago0x5ab6245b8676beb494db9e5aef8fdb41cb3c9694OUT PancakeSwap: Router v20 BNB0.00062171
0xed77e0b566865a4e308e6bdf5093fd5a215e8cfb299daf5c82704e148cd1919f79207962021-06-01 15:42:2355 days 15 hrs ago0x5ab6245b8676beb494db9e5aef8fdb41cb3c9694OUT MoonDoge Coin: MD Token0 BNB0.00022558
0x859785c551756fbc13c998da8ecc2d1643767925ec8397b25198e00e16edddce79206172021-06-01 15:33:2655 days 15 hrs ago0x5ab6245b8676beb494db9e5aef8fdb41cb3c9694OUT PancakeSwap: Router v20 BNB0.00102068
0xb33ecbcce75486d1030b682a7f36dfb3d0f87cd3aaa63cc390c68a43da432afb79204852021-06-01 15:26:5055 days 15 hrs ago0x5ab6245b8676beb494db9e5aef8fdb41cb3c9694OUT PancakeSwap: Router v20 BNB0.00102086
0xce5ca745678ae07cfb0b423c08b52ae8970f2f35d92d8ace229bb475f7f47e9b79204792021-06-01 15:26:3255 days 15 hrs ago0x5ab6245b8676beb494db9e5aef8fdb41cb3c9694OUT Boo Token: BOO Token0 BNB0.00022226
0xa9e7952f8532a61bccd01b16c59026651b606093b669318ff926c8b49041614679199532021-06-01 15:00:1455 days 15 hrs ago0x5ab6245b8676beb494db9e5aef8fdb41cb3c9694OUT PancakeSwap: Router v20.0001 BNB0.00120233
0x61254ed31a6f9187c6adf7c39ab9b2268d7d81837080d0a7ba3977525e5d8a6e79189892021-06-01 14:11:5955 days 16 hrs ago0x5ab6245b8676beb494db9e5aef8fdb41cb3c9694OUT PancakeSwap: Router v20.02 BNB0.00095711
0xb79dce31f95a48599aadcfaefdb7a3a954fc71ebdeb169b346f9fc37c90f625779182432021-06-01 13:34:2255 days 17 hrs ago0x5ab6245b8676beb494db9e5aef8fdb41cb3c9694OUT PancakeSwap: Router v20.00001 BNB0.000965715
0xeb681e1d8b26565f4c70abafaeae51a11f64b3664cc24375129e4aee589c100579181232021-06-01 13:28:2255 days 17 hrs ago0x5ab6245b8676beb494db9e5aef8fdb41cb3c9694OUT PancakeSwap: Router v20.00001 BNB0.000966125
0x574c47584a218a34ae465dbdc2151253dd35f7c30389833d7e6f02b0d297bd6579171142021-06-01 12:37:5555 days 18 hrs agoBinance: Hot Wallet 2 IN 0x5ab6245b8676beb494db9e5aef8fdb41cb3c96940.44776577 BNB0.00021
0x0229b851d7a4ee3ce1bb08a649c7fd932699db31ba55228ba5181b9807c8f69779121652021-06-01 8:29:4755 days 22 hrs ago0x5ab6245b8676beb494db9e5aef8fdb41cb3c9694OUT0xd539e8d59c6939441a2ccfa1a9d46338a798ece60.144402265 BNB0.000105
0xf141cae19c2c883c2cf345a6dd81a5c3275610623e16299c3d581d485e76dca379103552021-06-01 6:58:2255 days 23 hrs ago0x5ab6245b8676beb494db9e5aef8fdb41cb3c9694OUT PancakeSwap: Router v20.14 BNB0.000678315
0xfb8443ed0d840401a081122bdd00963bc0c7a971e1e6832cd9edb7b6c2bb335a79101092021-06-01 6:46:0456 days 10 mins agoBinance: Hot Wallet IN 0x5ab6245b8676beb494db9e5aef8fdb41cb3c96940.28518558 BNB0.00021
[ Download CSV Export 
Latest 5 internal transactions
Parent Txn Hash Block From To Value
0x375ba359f055898e470f2e660c60ec5983de9f641878b69de6741eb31115c6d081678042021-06-10 6:04:2247 days 52 mins ago PancakeSwap: Router v20x5ab6245b8676beb494db9e5aef8fdb41cb3c96940.002724468152438346 BNB
0xc6f25f4d3f9898ca0c1babb16d57373ca3c92edf69e585291d0c4e02ea69390c81665582021-06-10 5:01:0747 days 1 hr ago PancakeSwap: Router v20x5ab6245b8676beb494db9e5aef8fdb41cb3c96940.162686817394990897 BNB
0x2119f68bce05ec6fcb86764b3acdd65322d1b42eb2c07abc7ea44d5ba6bf26a779208072021-06-01 15:42:5655 days 15 hrs ago PancakeSwap: Router v20x5ab6245b8676beb494db9e5aef8fdb41cb3c96940.153509245608674143 BNB
0x859785c551756fbc13c998da8ecc2d1643767925ec8397b25198e00e16edddce79206172021-06-01 15:33:2655 days 15 hrs ago PancakeSwap: Router v20x5ab6245b8676beb494db9e5aef8fdb41cb3c96940.0000007117852443 BNB
0xb33ecbcce75486d1030b682a7f36dfb3d0f87cd3aaa63cc390c68a43da432afb79204852021-06-01 15:26:5055 days 15 hrs ago PancakeSwap: Router v20x5ab6245b8676beb494db9e5aef8fdb41cb3c96940.016581032338466207 BNB
[ Download CSV Export 
Loading

Contract Name:
0 BNB

Compiler Version
0

Optimization Enabled:
0 BNB

Other Settings:
-NA-
Block Transaction Gas Used Reward
Age Block Fee Address BC Fee Address Voting Power Jailed Incoming
Block Uncle Number Difficulty Gas Used Reward
Loading
Loading
Make sure to use the "Vote Down" button for any spammy posts, and the "Vote Up" for interesting conversations.